Time;durP1;ratioP1;P1;durP2;ratioP2;P2;SDS_P1;SDS_P2;PMS_P1;PMS_P2;Temp;Humidity;BMP_temperature;BMP_pressure;BME280_temperature;BME280_humidity;BME280_pressure;Samples;Min_cycle;Max_cycle;Signal;HPM_P1;HPM_P2
2021/01/11 00:01:46;;;;;;;35.92;19.67;;;;;;;;;;5034429;28;20176;-74
2021/01/11 00:04:12;;;;;;;34.80;21.25;;;;;;;;;;5038774;28;20025;-74
2021/01/11 00:06:42;;;;;;;32.75;20.02;;;;;;;;;;5035716;28;20034;-74
2021/01/11 00:09:08;;;;;;;33.47;20.27;;;;;;;;;;5039762;28;20033;-73
2021/01/11 00:11:35;;;;;;;34.00;20.40;;;;;;;;;;5039280;28;20100;-73
2021/01/11 00:14:04;;;;;;;37.42;21.42;;;;;;;;;;5033593;28;20108;-73
2021/01/11 00:16:30;;;;;;;36.92;20.63;;;;;;;;;;5037471;28;20029;-74
2021/01/11 00:18:56;;;;;;;37.10;21.83;;;;;;;;;;5035707;28;20092;-73
2021/01/11 00:21:22;;;;;;;37.75;21.45;;;;;;;;;;5035675;28;20105;-73
2021/01/11 00:23:48;;;;;;;38.78;21.35;;;;;;;;;;5036821;28;20528;-73
2021/01/11 00:26:14;;;;;;;37.95;21.80;;;;;;;;;;5049554;28;20111;-73
2021/01/11 00:28:40;;;;;;;43.55;22.75;;;;;;;;;;5061775;28;20033;-73
2021/01/11 00:31:07;;;;;;;41.38;22.75;;;;;;;;;;5067362;28;20040;-74
2021/01/11 00:33:33;;;;;;;38.08;22.38;;;;;;;;;;5059072;28;20063;-74
2021/01/11 00:35:59;;;;;;;38.50;22.33;;;;;;;;;;5063115;28;20484;-73
2021/01/11 00:38:24;;;;;;;46.38;26.13;;;;;;;;;;5062779;28;20517;-73
2021/01/11 00:40:50;;;;;;;43.67;25.25;;;;;;;;;;5050344;28;20100;-73
2021/01/11 00:43:16;;;;;;;45.80;25.17;;;;;;;;;;5050314;28;20057;-74
2021/01/11 00:45:42;;;;;;;47.63;25.33;;;;;;;;;;5039044;28;20080;-73
2021/01/11 00:48:08;;;;;;;48.85;24.95;;;;;;;;;;5034604;28;20051;-73
2021/01/11 00:50:34;;;;;;;48.40;27.27;;;;;;;;;;5061021;28;20044;-73
2021/01/11 00:53:00;;;;;;;54.55;26.75;;;;;;;;;;5049381;28;20116;-73
2021/01/11 00:55:26;;;;;;;49.30;26.05;;;;;;;;;;5038967;28;20024;-73
2021/01/11 00:57:52;;;;;;;50.78;27.13;;;;;;;;;;5059330;28;20025;-73
2021/01/11 01:00:19;;;;;;;45.75;24.75;;;;;;;;;;5048277;28;20066;-73
2021/01/11 01:02:45;;;;;;;48.80;26.00;;;;;;;;;;5036866;28;20027;-74
2021/01/11 01:05:12;;;;;;;47.65;25.92;;;;;;;;;;5035020;28;20030;-73
2021/01/11 01:07:39;;;;;;;47.80;26.40;;;;;;;;;;5035372;28;20482;-73
2021/01/11 01:10:05;;;;;;;45.85;25.55;;;;;;;;;;5061115;28;20048;-74
2021/01/11 01:12:31;;;;;;;52.60;25.88;;;;;;;;;;5051726;28;20029;-74
2021/01/11 01:14:57;;;;;;;48.97;26.88;;;;;;;;;;5050017;28;20049;-75
2021/01/11 01:17:23;;;;;;;48.95;25.92;;;;;;;;;;5049330;28;20134;-75
2021/01/11 01:19:49;;;;;;;45.15;25.27;;;;;;;;;;5048001;28;20060;-75
2021/01/11 01:22:15;;;;;;;46.65;23.70;;;;;;;;;;5043853;28;20036;-74
2021/01/11 01:24:41;;;;;;;46.80;25.85;;;;;;;;;;5032729;28;20471;-75
2021/01/11 01:27:07;;;;;;;43.88;24.52;;;;;;;;;;5039828;28;20499;-75
2021/01/11 01:29:33;;;;;;;46.00;24.95;;;;;;;;;;5036849;28;20033;-75
2021/01/11 01:31:59;;;;;;;46.92;24.70;;;;;;;;;;5056840;28;20520;-75
2021/01/11 01:34:25;;;;;;;50.45;27.20;;;;;;;;;;5049131;28;20446;-75
2021/01/11 01:36:51;;;;;;;52.17;26.23;;;;;;;;;;5053251;28;20415;-75
2021/01/11 01:39:17;;;;;;;50.55;25.98;;;;;;;;;;5051894;28;20049;-75
2021/01/11 01:41:44;;;;;;;52.75;26.40;;;;;;;;;;5050578;28;20087;-75
2021/01/11 01:44:10;;;;;;;48.42;26.13;;;;;;;;;;5055462;28;20499;-75
2021/01/11 01:46:36;;;;;;;51.53;26.25;;;;;;;;;;5052808;28;20040;-75
2021/01/11 01:49:02;;;;;;;45.45;25.20;;;;;;;;;;5058400;28;20032;-75
2021/01/11 01:51:28;;;;;;;46.20;24.10;;;;;;;;;;5048648;28;20033;-74
2021/01/11 01:53:55;;;;;;;46.60;24.25;;;;;;;;;;5040309;28;20369;-75
2021/01/11 01:56:21;;;;;;;46.63;25.48;;;;;;;;;;5043364;28;20233;-75
2021/01/11 01:58:47;;;;;;;48.63;26.00;;;;;;;;;;5032840;28;20029;-75
2021/01/11 02:01:14;;;;;;;52.95;29.40;;;;;;;;;;5044796;28;20380;-75
2021/01/11 02:03:40;;;;;;;60.53;28.83;;;;;;;;;;5054476;28;20401;-75
2021/01/11 02:06:06;;;;;;;53.58;28.52;;;;;;;;;;5040496;28;20025;-75
2021/01/11 02:08:32;;;;;;;51.47;27.30;;;;;;;;;;5066943;28;20024;-75
2021/01/11 02:11:01;;;;;;;50.15;25.73;;;;;;;;;;5050327;28;20029;-76
2021/01/11 02:13:30;;;;;;;54.17;27.38;;;;;;;;;;5046762;28;20071;-75
2021/01/11 02:16:14;;;;;;;53.63;27.80;;;;;;;;;;5048355;28;20037;-75
2021/01/11 02:18:50;;;;;;;50.28;26.88;;;;;;;;;;5046637;28;20028;-75
2021/01/11 02:21:16;;;;;;;53.20;28.30;;;;;;;;;;5047784;28;20035;-75
2021/01/11 02:24:00;;;;;;;52.80;28.13;;;;;;;;;;5048209;28;20025;-75
2021/01/11 02:26:32;;;;;;;51.75;27.42;;;;;;;;;;5048295;28;20482;-75
2021/01/11 02:29:02;;;;;;;55.25;28.35;;;;;;;;;;5060714;28;20115;-75
2021/01/11 02:31:29;;;;;;;52.40;28.45;;;;;;;;;;5043643;28;20040;-75
2021/01/11 02:33:56;;;;;;;56.53;28.98;;;;;;;;;;5038956;28;20033;-75
2021/01/11 02:36:22;;;;;;;57.05;28.33;;;;;;;;;;5033513;28;20033;-75
2021/01/11 02:38:49;;;;;;;55.72;29.13;;;;;;;;;;5049292;28;20025;-75
2021/01/11 02:41:15;;;;;;;58.38;28.05;;;;;;;;;;5046500;28;20025;-75
2021/01/11 02:43:41;;;;;;;65.10;29.98;;;;;;;;;;5040440;28;20449;-75
2021/01/11 02:46:07;;;;;;;60.03;28.40;;;;;;;;;;5040499;28;20056;-75
2021/01/11 02:48:46;;;;;;;56.05;28.73;;;;;;;;;;5052871;28;20458;-75
2021/01/11 02:51:15;;;;;;;54.88;27.80;;;;;;;;;;5066960;28;20109;-75
2021/01/11 02:53:59;;;;;;;59.13;30.85;;;;;;;;;;5042052;28;20489;-75
2021/01/11 02:56:28;;;;;;;56.03;28.88;;;;;;;;;;5050927;28;20445;-75
2021/01/11 02:58:58;;;;;;;65.45;30.40;;;;;;;;;;5034309;28;20025;-75
2021/01/11 03:01:27;;;;;;;58.17;29.88;;;;;;;;;;5047291;28;20037;-75
2021/01/11 03:03:55;;;;;;;58.25;30.88;;;;;;;;;;5045731;28;20029;-75
2021/01/11 03:06:21;;;;;;;57.08;29.10;;;;;;;;;;5047342;28;20033;-75
2021/01/11 03:08:47;;;;;;;56.65;31.20;;;;;;;;;;5047387;28;20452;-75
2021/01/11 03:11:13;;;;;;;55.00;29.50;;;;;;;;;;5046383;28;20029;-75
2021/01/11 03:13:39;;;;;;;62.83;31.60;;;;;;;;;;5045544;28;20082;-75
2021/01/11 03:16:05;;;;;;;63.67;31.30;;;;;;;;;;5047343;28;20055;-75
2021/01/11 03:18:31;;;;;;;59.20;29.52;;;;;;;;;;5047030;28;20029;-75
2021/01/11 03:20:57;;;;;;;62.10;31.17;;;;;;;;;;5046436;28;20032;-75
2021/01/11 03:23:23;;;;;;;58.80;29.45;;;;;;;;;;5040511;28;20034;-75
2021/01/11 03:25:49;;;;;;;66.03;30.25;;;;;;;;;;5039809;28;20109;-75
2021/01/11 03:28:15;;;;;;;62.00;30.17;;;;;;;;;;5038714;28;20037;-75
2021/01/11 03:30:41;;;;;;;55.50;28.77;;;;;;;;;;5045643;28;20194;-75
2021/01/11 03:33:06;;;;;;;62.55;30.40;;;;;;;;;;5033347;28;20522;-75
2021/01/11 03:35:32;;;;;;;55.78;29.80;;;;;;;;;;5046255;28;20123;-75
2021/01/11 03:37:58;;;;;;;58.15;30.45;;;;;;;;;;5047553;28;20043;-75
2021/01/11 03:40:24;;;;;;;62.83;30.20;;;;;;;;;;5040585;28;20108;-75
2021/01/11 03:42:50;;;;;;;64.28;32.08;;;;;;;;;;5046636;28;20024;-75
2021/01/11 03:45:16;;;;;;;66.82;32.35;;;;;;;;;;5037540;28;20037;-75
2021/01/11 03:47:42;;;;;;;58.92;30.92;;;;;;;;;;5042691;28;20037;-75
2021/01/11 03:50:08;;;;;;;58.50;29.73;;;;;;;;;;5056400;28;20025;-75
2021/01/11 03:52:35;;;;;;;65.30;31.88;;;;;;;;;;5057429;28;20025;-74
2021/01/11 03:55:01;;;;;;;66.18;32.75;;;;;;;;;;5051532;28;20032;-74
2021/01/11 03:57:31;;;;;;;67.03;33.28;;;;;;;;;;5036679;28;20471;-74
2021/01/11 03:59:57;;;;;;;72.32;33.08;;;;;;;;;;5049663;28;20076;-74
2021/01/11 04:02:23;;;;;;;68.38;35.55;;;;;;;;;;5050853;28;20029;-74
2021/01/11 04:04:49;;;;;;;63.30;33.78;;;;;;;;;;5050745;28;20090;-74
2021/01/11 04:07:15;;;;;;;71.32;37.53;;;;;;;;;;5051034;28;20490;-74
2021/01/11 04:09:41;;;;;;;71.35;35.00;;;;;;;;;;5030215;28;20125;-74
2021/01/11 04:12:07;;;;;;;62.80;31.85;;;;;;;;;;5039888;28;20025;-74
2021/01/11 04:14:33;;;;;;;67.68;33.55;;;;;;;;;;5049533;28;20033;-74
2021/01/11 04:16:59;;;;;;;63.58;32.28;;;;;;;;;;5049427;28;20036;-74
2021/01/11 04:19:25;;;;;;;66.00;33.70;;;;;;;;;;5050095;28;20044;-74
2021/01/11 04:21:51;;;;;;;65.03;31.90;;;;;;;;;;5045934;28;20100;-73
2021/01/11 04:24:17;;;;;;;64.00;34.85;;;;;;;;;;5043906;28;20459;-74
2021/01/11 04:26:46;;;;;;;69.20;33.80;;;;;;;;;;5050244;28;20032;-74
2021/01/11 04:29:12;;;;;;;64.18;32.72;;;;;;;;;;5049324;28;20128;-74
2021/01/11 04:31:38;;;;;;;71.55;33.72;;;;;;;;;;5045317;28;20113;-74
2021/01/11 04:34:04;;;;;;;66.32;33.97;;;;;;;;;;5029126;28;20112;-74
2021/01/11 04:36:34;;;;;;;64.40;33.45;;;;;;;;;;5047821;28;20449;-74
2021/01/11 04:39:00;;;;;;;66.05;34.30;;;;;;;;;;5039173;28;20483;-74
2021/01/11 04:41:29;;;;;;;63.45;32.45;;;;;;;;;;5044416;28;20090;-74
2021/01/11 04:43:55;;;;;;;61.10;32.42;;;;;;;;;;5048977;28;20075;-74
2021/01/11 04:46:22;;;;;;;59.95;31.83;;;;;;;;;;5034313;28;20121;-74
2021/01/11 04:48:48;;;;;;;55.70;30.85;;;;;;;;;;5044665;28;20042;-74
2021/01/11 04:51:14;;;;;;;60.25;30.77;;;;;;;;;;5031126;28;20025;-74
2021/01/11 04:53:47;;;;;;;63.53;32.60;;;;;;;;;;5044363;28;20109;-74
2021/01/11 04:56:13;;;;;;;54.55;27.52;;;;;;;;;;5040394;28;20090;-74
2021/01/11 04:58:58;;;;;;;56.00;27.70;;;;;;;;;;5035531;28;20044;-74
2021/01/11 05:01:25;;;;;;;53.17;27.17;;;;;;;;;;5050280;28;20053;-74
2021/01/11 05:03:51;;;;;;;49.40;26.65;;;;;;;;;;5046355;28;20025;-73
2021/01/11 05:06:18;;;;;;;51.20;25.70;;;;;;;;;;5037879;28;20115;-74
2021/01/11 05:08:45;;;;;;;46.63;24.95;;;;;;;;;;5049662;28;20021;-74
2021/01/11 05:11:11;;;;;;;43.35;23.08;;;;;;;;;;5050067;28;20521;-74
2021/01/11 05:13:37;;;;;;;44.15;22.00;;;;;;;;;;5050037;28;20025;-74
2021/01/11 05:16:10;;;;;;;44.05;22.83;;;;;;;;;;5035239;28;20528;-74
2021/01/11 05:18:36;;;;;;;37.00;20.83;;;;;;;;;;5049825;28;20025;-74
2021/01/11 05:21:02;;;;;;;40.10;19.48;;;;;;;;;;5058547;28;20404;-74
2021/01/11 05:23:34;;;;;;;33.15;17.38;;;;;;;;;;5039102;28;20032;-74
2021/01/11 05:26:00;;;;;;;30.00;17.50;;;;;;;;;;5046811;28;20025;-74
2021/01/11 05:28:26;;;;;;;35.95;18.48;;;;;;;;;;5049869;28;20036;-74
2021/01/11 05:30:52;;;;;;;31.35;17.90;;;;;;;;;;5047936;28;20029;-74
2021/01/11 05:33:19;;;;;;;35.88;19.67;;;;;;;;;;5035244;28;20086;-74
2021/01/11 05:35:45;;;;;;;33.42;17.88;;;;;;;;;;5059334;28;20024;-74
2021/01/11 05:38:18;;;;;;;29.40;19.10;;;;;;;;;;5051782;28;20029;-74
2021/01/11 05:40:44;;;;;;;34.53;19.63;;;;;;;;;;5047774;28;20025;-74
2021/01/11 05:43:17;;;;;;;40.47;20.88;;;;;;;;;;5061660;28;20028;-74
2021/01/11 05:45:43;;;;;;;36.97;20.52;;;;;;;;;;5056959;28;20046;-74
2021/01/11 05:48:10;;;;;;;39.88;22.25;;;;;;;;;;5041389;28;20041;-74
2021/01/11 05:50:46;;;;;;;38.03;23.00;;;;;;;;;;5043567;28;20108;-74
2021/01/11 05:53:21;;;;;;;44.35;23.92;;;;;;;;;;5029402;28;20040;-74
2021/01/11 05:55:48;;;;;;;46.05;25.30;;;;;;;;;;5028214;28;20029;-74
2021/01/11 05:58:14;;;;;;;44.40;25.77;;;;;;;;;;5040873;28;20064;-74
2021/01/11 06:00:41;;;;;;;46.88;25.90;;;;;;;;;;5035170;28;20025;-74
2021/01/11 06:03:08;;;;;;;43.63;24.35;;;;;;;;;;5049262;28;20635;-74
2021/01/11 06:05:34;;;;;;;42.60;25.05;;;;;;;;;;5052813;28;20074;-74
2021/01/11 06:08:01;;;;;;;44.17;25.83;;;;;;;;;;5069460;28;20493;-74
2021/01/11 06:10:27;;;;;;;44.00;24.58;;;;;;;;;;5037877;28;20041;-74
2021/01/11 06:12:54;;;;;;;47.22;25.23;;;;;;;;;;5037187;28;20040;-74
2021/01/11 06:15:21;;;;;;;39.50;24.05;;;;;;;;;;5049772;28;20033;-74
2021/01/11 06:17:48;;;;;;;45.42;23.65;;;;;;;;;;5048347;28;20855;-74
2021/01/11 06:20:25;;;;;;;42.50;21.30;;;;;;;;;;5049487;28;20426;-74
2021/01/11 06:22:51;;;;;;;38.33;22.10;;;;;;;;;;5048249;28;20032;-74
2021/01/11 06:25:20;;;;;;;35.63;19.92;;;;;;;;;;5041781;28;20025;-74
2021/01/11 06:27:59;;;;;;;37.58;20.95;;;;;;;;;;5056291;28;20371;-74
2021/01/11 06:30:36;;;;;;;36.07;18.97;;;;;;;;;;5031567;28;20029;-74
2021/01/11 06:33:18;;;;;;;37.53;18.33;;;;;;;;;;5031500;28;20070;-74
2021/01/11 06:35:44;;;;;;;32.13;18.63;;;;;;;;;;5029379;28;20064;-74
2021/01/11 06:38:18;;;;;;;30.33;17.23;;;;;;;;;;5032777;28;20060;-74
2021/01/11 06:40:54;;;;;;;26.73;15.18;;;;;;;;;;5060400;28;20031;-74
2021/01/11 06:43:21;;;;;;;27.23;16.17;;;;;;;;;;5064382;28;20025;-74
2021/01/11 06:45:48;;;;;;;28.02;14.55;;;;;;;;;;5048030;28;20460;-74
2021/01/11 06:48:15;;;;;;;25.30;15.40;;;;;;;;;;5034754;28;20052;-74
2021/01/11 06:50:42;;;;;;;22.52;14.02;;;;;;;;;;5042677;28;20213;-74
2021/01/11 06:53:08;;;;;;;24.25;14.35;;;;;;;;;;5031201;28;20227;-74
2021/01/11 06:55:34;;;;;;;25.92;14.25;;;;;;;;;;5055139;28;20454;-74
2021/01/11 06:58:01;;;;;;;22.73;12.40;;;;;;;;;;5071384;28;20093;-74
2021/01/11 07:00:39;;;;;;;23.60;12.90;;;;;;;;;;5066096;28;20032;-74
2021/01/11 07:03:06;;;;;;;20.23;13.05;;;;;;;;;;5042317;28;20384;-74
2021/01/11 07:05:35;;;;;;;26.08;13.50;;;;;;;;;;5052306;28;20106;-74
2021/01/11 07:08:05;;;;;;;27.52;12.75;;;;;;;;;;5051831;28;20025;-74
2021/01/11 07:10:31;;;;;;;27.50;14.02;;;;;;;;;;5051187;28;20075;-74
2021/01/11 07:13:15;;;;;;;22.80;12.32;;;;;;;;;;5040421;28;20103;-74
2021/01/11 07:15:42;;;;;;;25.77;11.98;;;;;;;;;;5049994;28;20111;-74
2021/01/11 07:18:08;;;;;;;20.63;11.32;;;;;;;;;;5051273;28;20617;-74
2021/01/11 07:20:44;;;;;;;22.75;11.27;;;;;;;;;;5050355;28;20025;-74
2021/01/11 07:23:10;;;;;;;23.10;13.02;;;;;;;;;;5044998;28;20493;-74
2021/01/11 07:25:37;;;;;;;21.38;11.63;;;;;;;;;;5055983;28;20103;-74
2021/01/11 07:28:04;;;;;;;26.25;11.05;;;;;;;;;;5051326;28;20033;-75
2021/01/11 07:30:34;;;;;;;25.05;12.77;;;;;;;;;;5058532;28;20037;-74
2021/01/11 07:33:00;;;;;;;23.80;13.93;;;;;;;;;;5056327;28;20024;-74
2021/01/11 07:35:25;;;;;;;25.90;14.38;;;;;;;;;;5058832;28;20033;-75
2021/01/11 07:37:52;;;;;;;22.63;12.63;;;;;;;;;;5054071;28;20039;-75
2021/01/11 07:40:17;;;;;;;19.60;12.38;;;;;;;;;;5073720;28;20051;-74
2021/01/11 07:42:43;;;;;;;21.55;11.60;;;;;;;;;;5081874;28;20029;-74
2021/01/11 07:45:11;;;;;;;17.98;10.43;;;;;;;;;;5066120;28;20080;-74
2021/01/11 07:47:37;;;;;;;17.20;9.50;;;;;;;;;;5067988;28;20059;-74
2021/01/11 07:50:04;;;;;;;16.33;9.68;;;;;;;;;;5059269;28;20056;-74
2021/01/11 07:52:31;;;;;;;18.92;10.40;;;;;;;;;;5073064;28;20039;-74
2021/01/11 07:54:58;;;;;;;18.73;10.98;;;;;;;;;;5072986;28;20092;-74
2021/01/11 07:57:29;;;;;;;17.73;10.60;;;;;;;;;;5059106;28;20040;-74
2021/01/11 08:00:04;;;;;;;20.40;10.48;;;;;;;;;;5071960;28;20036;-74
2021/01/11 08:02:30;;;;;;;22.92;11.07;;;;;;;;;;5072812;28;20013;-74
2021/01/11 08:04:56;;;;;;;18.75;11.45;;;;;;;;;;5073237;28;20035;-74
2021/01/11 08:07:26;;;;;;;24.80;10.52;;;;;;;;;;5071906;28;20025;-74
2021/01/11 08:09:55;;;;;;;19.52;11.07;;;;;;;;;;5072245;28;20029;-74
2021/01/11 08:12:21;;;;;;;24.42;11.55;;;;;;;;;;5047839;28;20468;-74
2021/01/11 08:14:48;;;;;;;25.42;12.07;;;;;;;;;;5046246;28;20041;-74
2021/01/11 08:17:25;;;;;;;26.08;12.27;;;;;;;;;;5042587;28;20035;-74
2021/01/11 08:19:51;;;;;;;21.00;12.18;;;;;;;;;;5046918;28;20045;-73
2021/01/11 08:22:18;;;;;;;21.08;12.82;;;;;;;;;;5039453;28;20034;-74
2021/01/11 08:24:45;;;;;;;20.60;12.20;;;;;;;;;;5032867;28;20028;-73
2021/01/11 08:27:19;;;;;;;20.33;12.00;;;;;;;;;;5031956;28;20041;-74
2021/01/11 08:29:45;;;;;;;23.83;12.52;;;;;;;;;;5038656;28;20029;-74
2021/01/11 08:32:12;;;;;;;19.50;12.18;;;;;;;;;;5031443;28;20049;-74
2021/01/11 08:34:39;;;;;;;23.45;13.32;;;;;;;;;;5033585;28;20109;-74
2021/01/11 08:37:31;;;;;;;22.95;11.75;;;;;;;;;;5047106;28;20446;-75
2021/01/11 08:40:07;;;;;;;20.98;11.80;;;;;;;;;;5048038;28;20025;-74
2021/01/11 08:42:34;;;;;;;21.48;12.18;;;;;;;;;;5037521;28;20029;-74
2021/01/11 08:45:19;;;;;;;23.98;12.48;;;;;;;;;;5038181;28;20037;-73
2021/01/11 08:47:45;;;;;;;17.33;11.35;;;;;;;;;;5041175;28;20033;-74
2021/01/11 08:50:11;;;;;;;23.42;13.07;;;;;;;;;;5042810;28;20055;-73
2021/01/11 08:52:37;;;;;;;18.85;11.07;;;;;;;;;;5041258;28;20404;-73
2021/01/11 08:55:14;;;;;;;20.63;10.77;;;;;;;;;;5042908;28;20478;-73
2021/01/11 08:57:41;;;;;;;21.65;10.93;;;;;;;;;;5040534;28;20044;-73
2021/01/11 09:00:15;;;;;;;17.83;10.82;;;;;;;;;;5042483;28;20029;-73
2021/01/11 09:02:45;;;;;;;16.88;10.02;;;;;;;;;;5038137;28;20021;-73
2021/01/11 09:05:11;;;;;;;;;;;;;;;;;;5044125;28;20025;-73
2021/01/11 09:07:37;;;;;;;19.00;11.18;;;;;;;;;;5050082;28;20019;-73
2021/01/11 09:10:17;;;;;;;21.60;10.95;;;;;;;;;;5041068;28;20036;-73
2021/01/11 09:12:43;;;;;;;18.17;10.57;;;;;;;;;;5016289;28;20055;-73
2021/01/11 09:15:09;;;;;;;19.55;11.77;;;;;;;;;;5025456;28;20404;-73
2021/01/11 09:17:35;;;;;;;22.40;10.05;;;;;;;;;;5043061;28;20029;-75
2021/01/11 09:20:02;;;;;;;16.75;9.93;;;;;;;;;;5039577;28;20022;-73
2021/01/11 09:22:40;;;;;;;20.60;10.73;;;;;;;;;;5029179;28;20391;-73
2021/01/11 09:25:12;;;;;;;40.90;12.82;;;;;;;;;;5024462;28;20032;-73
2021/01/11 09:27:39;;;;;;;19.45;10.93;;;;;;;;;;5021011;28;20037;-73
2021/01/11 09:30:07;;;;;;;20.08;10.57;;;;;;;;;;5034046;28;20119;-73
2021/01/11 09:32:33;;;;;;;20.30;11.20;;;;;;;;;;5029207;28;20083;-73
2021/01/11 09:34:59;;;;;;;17.92;10.50;;;;;;;;;;5019838;28;20076;-74
2021/01/11 09:37:25;;;;;;;15.45;10.43;;;;;;;;;;5033700;28;20080;-74
2021/01/11 09:39:51;;;;;;;18.63;11.02;;;;;;;;;;5023186;28;20029;-73
2021/01/11 09:42:17;;;;;;;16.63;10.32;;;;;;;;;;5021061;28;20077;-73
2021/01/11 09:44:43;;;;;;;18.58;10.98;;;;;;;;;;5024129;28;20819;-73
2021/01/11 09:47:09;;;;;;;18.33;10.43;;;;;;;;;;5024557;28;20173;-73
2021/01/11 09:49:35;;;;;;;16.35;10.30;;;;;;;;;;5020581;28;20040;-73
2021/01/11 09:52:02;;;;;;;17.52;10.35;;;;;;;;;;5020089;28;20038;-73
2021/01/11 09:54:28;;;;;;;20.70;11.20;;;;;;;;;;5019740;28;20403;-73
2021/01/11 09:56:57;;;;;;;15.90;9.77;;;;;;;;;;5025816;28;20033;-72
2021/01/11 09:59:23;;;;;;;17.05;10.90;;;;;;;;;;5024136;28;20108;-73
2021/01/11 10:01:49;;;;;;;18.27;11.15;;;;;;;;;;5016438;28;20189;-73
2021/01/11 10:04:16;;;;;;;16.17;10.27;;;;;;;;;;5022802;28;20041;-74
2021/01/11 10:06:50;;;;;;;17.48;10.20;;;;;;;;;;5021362;28;20052;-73
2021/01/11 10:09:17;;;;;;;16.13;10.52;;;;;;;;;;5026914;28;20034;-73
2021/01/11 10:11:45;;;;;;;16.75;9.48;;;;;;;;;;5021591;28;20034;-73
2021/01/11 10:14:11;;;;;;;17.58;9.18;;;;;;;;;;5011590;28;20033;-73
2021/01/11 10:16:41;;;;;;;17.45;10.18;;;;;;;;;;5010078;28;20037;-73
2021/01/11 10:19:08;;;;;;;18.58;9.95;;;;;;;;;;5025072;28;20658;-73
2021/01/11 10:21:34;;;;;;;20.38;10.82;;;;;;;;;;5013841;28;20034;-73
2021/01/11 10:24:00;;;;;;;18.73;9.40;;;;;;;;;;5042061;28;20028;-73
2021/01/11 10:26:26;;;;;;;17.67;9.98;;;;;;;;;;5026776;28;20033;-73
2021/01/11 10:28:52;;;;;;;17.80;9.40;;;;;;;;;;5034719;28;20030;-72
2021/01/11 10:31:18;;;;;;;17.38;9.82;;;;;;;;;;5031598;28;20273;-73
2021/01/11 10:33:45;;;;;;;18.98;9.93;;;;;;;;;;5024565;28;20079;-73
2021/01/11 10:36:12;;;;;;;17.35;10.45;;;;;;;;;;5032708;28;20068;-73
2021/01/11 10:38:38;;;;;;;20.25;10.50;;;;;;;;;;5040916;28;20525;-73
2021/01/11 10:41:04;;;;;;;15.25;9.13;;;;;;;;;;5019800;28;20026;-73
2021/01/11 10:43:30;;;;;;;16.48;9.57;;;;;;;;;;5042449;28;20515;-73
2021/01/11 10:45:57;;;;;;;16.70;8.90;;;;;;;;;;5049162;28;20064;-73
2021/01/11 10:48:23;;;;;;;17.83;9.75;;;;;;;;;;5021911;28;20052;-73
2021/01/11 10:50:49;;;;;;;23.10;9.50;;;;;;;;;;5010705;28;20029;-73
2021/01/11 10:53:15;;;;;;;17.02;9.30;;;;;;;;;;5052626;28;20083;-73
2021/01/11 10:55:41;;;;;;;16.95;8.73;;;;;;;;;;5024229;28;20025;-73
2021/01/11 10:58:07;;;;;;;15.10;9.80;;;;;;;;;;5029806;28;20491;-73
2021/01/11 11:00:33;;;;;;;14.73;8.13;;;;;;;;;;5029779;28;20022;-73
2021/01/11 11:02:59;;;;;;;16.13;8.00;;;;;;;;;;5044904;28;20029;-73
2021/01/11 11:05:25;;;;;;;15.00;8.18;;;;;;;;;;5025656;28;20104;-73
2021/01/11 11:07:52;;;;;;;12.68;7.30;;;;;;;;;;5028397;28;20025;-72
2021/01/11 11:10:18;;;;;;;20.35;9.15;;;;;;;;;;5013905;28;20037;-73
2021/01/11 11:12:44;;;;;;;12.15;7.20;;;;;;;;;;5029904;28;20033;-73
2021/01/11 11:15:10;;;;;;;10.90;6.05;;;;;;;;;;5020539;28;20029;-72
2021/01/11 11:17:36;;;;;;;12.23;6.55;;;;;;;;;;5028710;28;20063;-72
2021/01/11 11:20:03;;;;;;;10.52;5.90;;;;;;;;;;5010249;28;20060;-73
2021/01/11 11:22:29;;;;;;;12.70;6.38;;;;;;;;;;5013101;28;20106;-73
2021/01/11 11:24:55;;;;;;;13.77;6.28;;;;;;;;;;5042721;28;20323;-73
2021/01/11 11:27:21;;;;;;;11.75;5.35;;;;;;;;;;5018465;28;20454;-74
2021/01/11 11:29:48;;;;;;;15.48;6.03;;;;;;;;;;5021694;28;20038;-74
2021/01/11 11:32:16;;;;;;;11.15;5.78;;;;;;;;;;5016491;28;20555;-74
2021/01/11 11:34:42;;;;;;;11.00;5.50;;;;;;;;;;5036382;28;20451;-73
2021/01/11 11:37:08;;;;;;;15.68;5.10;;;;;;;;;;5026406;28;20482;-74
2021/01/11 11:39:34;;;;;;;10.35;4.43;;;;;;;;;;5019099;28;20052;-74
2021/01/11 11:42:01;;;;;;;12.32;5.30;;;;;;;;;;5031494;28;20625;-75
2021/01/11 11:44:27;;;;;;;11.48;4.82;;;;;;;;;;5022475;28;20100;-74
2021/01/11 11:46:53;;;;;;;8.50;5.50;;;;;;;;;;5026636;28;20030;-74
2021/01/11 11:49:20;;;;;;;10.93;4.50;;;;;;;;;;5025407;28;20041;-74
2021/01/11 11:51:46;;;;;;;10.68;3.78;;;;;;;;;;5027419;28;20034;-74
2021/01/11 11:54:12;;;;;;;10.27;3.90;;;;;;;;;;5030721;28;20025;-74
2021/01/11 11:56:39;;;;;;;6.90;3.88;;;;;;;;;;5042434;28;20379;-74
2021/01/11 11:59:06;;;;;;;7.20;3.38;;;;;;;;;;5036597;28;20033;-74
2021/01/11 12:01:36;;;;;;;8.10;3.22;;;;;;;;;;5022884;28;20479;-73
2021/01/11 12:04:02;;;;;;;6.57;3.08;;;;;;;;;;5027550;28;20108;-74
2021/01/11 12:06:36;;;;;;;7.18;2.95;;;;;;;;;;5027184;28;20043;-74
2021/01/11 12:09:02;;;;;;;5.93;2.67;;;;;;;;;;5030263;28;20017;-74
2021/01/11 12:11:27;;;;;;;10.55;3.05;;;;;;;;;;5045881;28;20044;-74
2021/01/11 12:13:53;;;;;;;6.45;3.20;;;;;;;;;;5028954;28;20018;-74
2021/01/11 12:16:19;;;;;;;7.88;3.25;;;;;;;;;;5011178;28;20060;-74
2021/01/11 12:18:45;;;;;;;8.00;3.60;;;;;;;;;;5024754;28;20033;-74
2021/01/11 12:21:11;;;;;;;8.35;3.28;;;;;;;;;;5026405;28;20131;-74
2021/01/11 12:23:37;;;;;;;8.20;3.80;;;;;;;;;;5022993;28;20152;-73
2021/01/11 12:26:03;;;;;;;6.57;3.47;;;;;;;;;;5015243;28;20108;-73
2021/01/11 12:28:29;;;;;;;10.43;3.22;;;;;;;;;;5031164;28;20057;-73
2021/01/11 12:30:55;;;;;;;8.52;3.38;;;;;;;;;;5045774;28;20120;-73
2021/01/11 12:33:21;;;;;;;6.38;3.58;;;;;;;;;;5022433;28;20033;-73
2021/01/11 12:35:47;;;;;;;10.18;3.25;;;;;;;;;;5038485;28;20033;-73
2021/01/11 12:38:13;;;;;;;8.50;3.85;;;;;;;;;;5040727;28;20083;-73
2021/01/11 12:40:38;;;;;;;7.55;3.85;;;;;;;;;;5049542;28;20028;-73
2021/01/11 12:43:04;;;;;;;12.90;3.65;;;;;;;;;;5032880;28;20052;-73
2021/01/11 12:45:30;;;;;;;7.38;3.42;;;;;;;;;;5025327;28;20032;-73
2021/01/11 12:47:56;;;;;;;5.32;3.35;;;;;;;;;;5022866;28;20026;-73
2021/01/11 12:50:22;;;;;;;10.95;3.92;;;;;;;;;;5041568;28;20026;-73
2021/01/11 12:52:48;;;;;;;6.93;3.72;;;;;;;;;;5026394;28;20029;-73
2021/01/11 12:55:14;;;;;;;10.75;3.08;;;;;;;;;;5041258;28;20033;-73
2021/01/11 12:57:40;;;;;;;12.30;5.28;;;;;;;;;;5028240;28;20037;-73
2021/01/11 13:00:06;;;;;;;11.25;6.20;;;;;;;;;;5026836;28;20037;-73
2021/01/11 13:02:33;;;;;;;15.07;7.72;;;;;;;;;;5026950;28;20029;-74
2021/01/11 13:04:59;;;;;;;13.55;6.53;;;;;;;;;;5021517;28;20021;-73
2021/01/11 13:07:25;;;;;;;13.75;7.35;;;;;;;;;;5043264;28;20033;-72
2021/01/11 13:09:51;;;;;;;11.10;7.38;;;;;;;;;;5028203;28;20034;-74
2021/01/11 13:12:17;;;;;;;18.63;7.82;;;;;;;;;;5045044;28;20065;-74
2021/01/11 13:14:43;;;;;;;14.45;8.07;;;;;;;;;;5024151;28;20029;-75
2021/01/11 13:17:09;;;;;;;13.88;7.75;;;;;;;;;;5031712;28;20029;-74
2021/01/11 13:19:35;;;;;;;15.63;8.52;;;;;;;;;;5035610;28;20026;-74
2021/01/11 13:22:01;;;;;;;15.20;9.23;;;;;;;;;;5030890;28;20092;-75
2021/01/11 13:24:27;;;;;;;12.38;7.90;;;;;;;;;;5032929;28;20029;-75
2021/01/11 13:26:53;;;;;;;15.35;7.97;;;;;;;;;;5017523;28;20034;-76
2021/01/11 13:29:19;;;;;;;15.57;8.07;;;;;;;;;;5037934;28;20041;-75
2021/01/11 13:31:49;;;;;;;11.25;7.38;;;;;;;;;;5025173;28;20394;-75
2021/01/11 13:34:15;;;;;;;10.80;7.40;;;;;;;;;;5030375;28;20112;-75
2021/01/11 13:36:42;;;;;;;16.88;8.15;;;;;;;;;;5030416;28;20304;-75
2021/01/11 13:39:08;;;;;;;11.90;7.13;;;;;;;;;;5013029;28;20063;-74
2021/01/11 13:41:34;;;;;;;16.15;7.82;;;;;;;;;;5011237;28;20061;-73
2021/01/11 13:44:00;;;;;;;16.58;7.07;;;;;;;;;;5013162;28;20021;-74
2021/01/11 13:46:27;;;;;;;13.52;7.43;;;;;;;;;;5038022;28;20360;-74
2021/01/11 13:48:53;;;;;;;16.45;7.65;;;;;;;;;;5029777;28;20134;-74
2021/01/11 13:51:19;;;;;;;16.38;8.93;;;;;;;;;;5040893;28;20505;-74
2021/01/11 13:53:45;;;;;;;12.35;6.60;;;;;;;;;;5040771;28;20021;-73
2021/01/11 13:56:11;;;;;;;14.32;7.50;;;;;;;;;;5034764;28;20029;-74
2021/01/11 13:58:37;;;;;;;12.90;6.05;;;;;;;;;;5028202;28;20119;-74
2021/01/11 14:01:03;;;;;;;14.57;8.38;;;;;;;;;;5031928;28;20068;-74
2021/01/11 14:03:29;;;;;;;13.10;6.60;;;;;;;;;;5028193;28;20529;-74
2021/01/11 14:05:55;;;;;;;14.23;5.90;;;;;;;;;;5024380;28;20113;-74
2021/01/11 14:08:21;;;;;;;14.35;6.47;;;;;;;;;;5012498;28;20156;-75
2021/01/11 14:10:48;;;;;;;12.60;5.70;;;;;;;;;;5041650;28;20112;-75
2021/01/11 14:13:13;;;;;;;11.45;5.38;;;;;;;;;;5029673;28;20040;-75
2021/01/11 14:15:39;;;;;;;12.63;5.00;;;;;;;;;;5017471;28;20042;-74
2021/01/11 14:18:05;;;;;;;12.07;4.75;;;;;;;;;;5023260;28;20036;-74
2021/01/11 14:20:31;;;;;;;10.68;5.03;;;;;;;;;;5008979;28;20022;-75
2021/01/11 14:22:57;;;;;;;8.57;4.80;;;;;;;;;;5029408;28;20022;-75